sensor_id;sensor_type;location;lat;lon;timestamp;P1;durP1;ratioP1;P2;durP2;ratioP2
50319;SDS011;36226;53.464;9.852;2022-12-18T00:01:28;10.98;;;4.03;;
50319;SDS011;36226;53.464;9.852;2022-12-18T00:03:56;8.52;;;4.35;;
50319;SDS011;36226;53.464;9.852;2022-12-18T00:06:22;11.15;;;4.45;;
50319;SDS011;36226;53.464;9.852;2022-12-18T00:08:51;11.50;;;4.57;;
50319;SDS011;36226;53.464;9.852;2022-12-18T00:11:18;9.80;;;4.93;;
50319;SDS011;36226;53.464;9.852;2022-12-18T00:13:46;10.40;;;4.70;;
50319;SDS011;36226;53.464;9.852;2022-12-18T00:16:13;10.73;;;5.18;;
50319;SDS011;36226;53.464;9.852;2022-12-18T00:18:40;9.05;;;4.70;;
50319;SDS011;36226;53.464;9.852;2022-12-18T00:21:07;10.75;;;5.00;;
50319;SDS011;36226;53.464;9.852;2022-12-18T00:23:34;10.93;;;5.20;;
50319;SDS011;36226;53.464;9.852;2022-12-18T00:26:00;10.88;;;5.00;;
50319;SDS011;36226;53.464;9.852;2022-12-18T00:28:26;9.45;;;5.20;;
50319;SDS011;36226;53.464;9.852;2022-12-18T00:31:05;10.65;;;4.93;;
50319;SDS011;36226;53.464;9.852;2022-12-18T00:33:32;9.68;;;5.20;;
50319;SDS011;36226;53.464;9.852;2022-12-18T00:36:02;11.45;;;5.32;;
50319;SDS011;36226;53.464;9.852;2022-12-18T00:38:28;9.98;;;5.15;;
50319;SDS011;36226;53.464;9.852;2022-12-18T00:40:54;13.82;;;5.30;;
50319;SDS011;36226;53.464;9.852;2022-12-18T00:43:20;10.98;;;5.40;;
50319;SDS011;36226;53.464;9.852;2022-12-18T00:45:45;10.90;;;5.38;;
50319;SDS011;36226;53.464;9.852;2022-12-18T00:48:10;12.60;;;5.43;;
50319;SDS011;36226;53.464;9.852;2022-12-18T00:50:36;11.23;;;5.13;;
50319;SDS011;36226;53.464;9.852;2022-12-18T00:53:01;9.05;;;5.03;;
50319;SDS011;36226;53.464;9.852;2022-12-18T00:55:26;13.13;;;5.03;;
50319;SDS011;36226;53.464;9.852;2022-12-18T00:57:52;9.70;;;4.55;;
50319;SDS011;36226;53.464;9.852;2022-12-18T01:00:17;10.38;;;4.72;;
50319;SDS011;36226;53.464;9.852;2022-12-18T01:02:43;10.35;;;4.88;;
50319;SDS011;36226;53.464;9.852;2022-12-18T01:05:09;11.27;;;4.97;;
50319;SDS011;36226;53.464;9.852;2022-12-18T01:07:35;11.40;;;5.03;;
50319;SDS011;36226;53.464;9.852;2022-12-18T01:10:01;10.38;;;4.75;;
50319;SDS011;36226;53.464;9.852;2022-12-18T01:12:26;12.40;;;4.53;;
50319;SDS011;36226;53.464;9.852;2022-12-18T01:14:52;11.10;;;5.45;;
50319;SDS011;36226;53.464;9.852;2022-12-18T01:17:17;8.95;;;4.45;;
50319;SDS011;36226;53.464;9.852;2022-12-18T01:19:42;8.98;;;4.50;;
50319;SDS011;36226;53.464;9.852;2022-12-18T01:22:08;8.15;;;4.40;;
50319;SDS011;36226;53.464;9.852;2022-12-18T01:24:33;10.45;;;4.55;;
50319;SDS011;36226;53.464;9.852;2022-12-18T01:26:58;11.20;;;4.60;;
50319;SDS011;36226;53.464;9.852;2022-12-18T01:29:24;10.48;;;5.32;;
50319;SDS011;36226;53.464;9.852;2022-12-18T01:31:49;8.30;;;4.32;;
50319;SDS011;36226;53.464;9.852;2022-12-18T01:34:14;8.57;;;3.97;;
50319;SDS011;36226;53.464;9.852;2022-12-18T01:36:40;9.07;;;4.53;;
50319;SDS011;36226;53.464;9.852;2022-12-18T01:39:10;10.13;;;4.00;;
50319;SDS011;36226;53.464;9.852;2022-12-18T01:41:36;7.10;;;3.65;;
50319;SDS011;36226;53.464;9.852;2022-12-18T01:52:42;9.80;;;4.28;;
50319;SDS011;36226;53.464;9.852;2022-12-18T01:55:10;9.57;;;3.90;;
50319;SDS011;36226;53.464;9.852;2022-12-18T01:57:37;10.00;;;4.22;;
50319;SDS011;36226;53.464;9.852;2022-12-18T02:00:05;11.13;;;4.45;;
50319;SDS011;36226;53.464;9.852;2022-12-18T02:02:36;7.93;;;3.90;;
50319;SDS011;36226;53.464;9.852;2022-12-18T02:05:02;8.48;;;4.28;;
50319;SDS011;36226;53.464;9.852;2022-12-18T02:07:35;10.43;;;4.30;;
50319;SDS011;36226;53.464;9.852;2022-12-18T02:10:03;9.32;;;4.25;;
50319;SDS011;36226;53.464;9.852;2022-12-18T02:12:48;8.73;;;3.95;;
50319;SDS011;36226;53.464;9.852;2022-12-18T02:15:18;9.48;;;4.03;;
50319;SDS011;36226;53.464;9.852;2022-12-18T02:20:27;8.75;;;3.90;;
50319;SDS011;36226;53.464;9.852;2022-12-18T02:23:04;8.60;;;4.47;;
50319;SDS011;36226;53.464;9.852;2022-12-18T02:28:15;8.13;;;4.30;;
50319;SDS011;36226;53.464;9.852;2022-12-18T02:30:42;7.70;;;3.60;;
50319;SDS011;36226;53.464;9.852;2022-12-18T02:33:08;11.40;;;4.82;;
50319;SDS011;36226;53.464;9.852;2022-12-18T02:35:36;11.00;;;4.53;;
50319;SDS011;36226;53.464;9.852;2022-12-18T02:38:03;8.77;;;3.78;;
50319;SDS011;36226;53.464;9.852;2022-12-18T02:40:28;10.45;;;4.35;;
50319;SDS011;36226;53.464;9.852;2022-12-18T02:42:54;8.80;;;4.75;;
50319;SDS011;36226;53.464;9.852;2022-12-18T02:45:20;7.30;;;4.05;;
50319;SDS011;36226;53.464;9.852;2022-12-18T02:47:46;9.88;;;4.38;;
50319;SDS011;36226;53.464;9.852;2022-12-18T02:50:56;9.77;;;4.05;;
50319;SDS011;36226;53.464;9.852;2022-12-18T03:01:25;7.35;;;3.70;;
50319;SDS011;36226;53.464;9.852;2022-12-18T03:04:07;11.77;;;5.28;;
50319;SDS011;36226;53.464;9.852;2022-12-18T03:06:41;11.30;;;5.35;;
50319;SDS011;36226;53.464;9.852;2022-12-18T03:09:10;10.02;;;4.68;;
50319;SDS011;36226;53.464;9.852;2022-12-18T03:11:40;9.73;;;4.15;;
50319;SDS011;36226;53.464;9.852;2022-12-18T03:14:33;12.23;;;4.28;;
50319;SDS011;36226;53.464;9.852;2022-12-18T03:17:00;10.65;;;4.80;;
50319;SDS011;36226;53.464;9.852;2022-12-18T03:19:28;8.60;;;4.05;;
50319;SDS011;36226;53.464;9.852;2022-12-18T03:21:55;10.90;;;4.00;;
50319;SDS011;36226;53.464;9.852;2022-12-18T03:24:21;10.45;;;4.03;;
50319;SDS011;36226;53.464;9.852;2022-12-18T03:26:49;9.93;;;3.70;;
50319;SDS011;36226;53.464;9.852;2022-12-18T03:29:20;9.30;;;3.97;;
50319;SDS011;36226;53.464;9.852;2022-12-18T03:31:51;8.95;;;3.95;;
50319;SDS011;36226;53.464;9.852;2022-12-18T03:34:23;10.60;;;4.20;;
50319;SDS011;36226;53.464;9.852;2022-12-18T03:36:52;7.95;;;3.85;;
50319;SDS011;36226;53.464;9.852;2022-12-18T03:39:18;9.77;;;4.03;;
50319;SDS011;36226;53.464;9.852;2022-12-18T03:41:50;9.60;;;4.28;;
50319;SDS011;36226;53.464;9.852;2022-12-18T03:47:05;10.93;;;4.30;;
50319;SDS011;36226;53.464;9.852;2022-12-18T03:49:48;8.27;;;3.60;;
50319;SDS011;36226;53.464;9.852;2022-12-18T03:52:20;10.07;;;4.10;;
50319;SDS011;36226;53.464;9.852;2022-12-18T03:54:49;7.00;;;3.43;;
50319;SDS011;36226;53.464;9.852;2022-12-18T03:57:18;11.55;;;4.10;;
50319;SDS011;36226;53.464;9.852;2022-12-18T03:59:45;7.50;;;3.90;;
50319;SDS011;36226;53.464;9.852;2022-12-18T04:02:12;7.70;;;3.78;;
50319;SDS011;36226;53.464;9.852;2022-12-18T04:04:38;8.98;;;4.32;;
50319;SDS011;36226;53.464;9.852;2022-12-18T04:07:05;8.85;;;4.13;;
50319;SDS011;36226;53.464;9.852;2022-12-18T04:09:30;8.35;;;3.97;;
50319;SDS011;36226;53.464;9.852;2022-12-18T04:11:57;9.77;;;4.25;;
50319;SDS011;36226;53.464;9.852;2022-12-18T04:14:22;10.43;;;4.07;;
50319;SDS011;36226;53.464;9.852;2022-12-18T04:16:48;11.30;;;4.07;;
50319;SDS011;36226;53.464;9.852;2022-12-18T04:19:13;9.33;;;3.90;;
50319;SDS011;36226;53.464;9.852;2022-12-18T04:21:38;8.70;;;4.10;;
50319;SDS011;36226;53.464;9.852;2022-12-18T04:24:04;9.43;;;4.05;;
50319;SDS011;36226;53.464;9.852;2022-12-18T04:26:29;9.38;;;4.10;;
50319;SDS011;36226;53.464;9.852;2022-12-18T04:28:55;7.85;;;4.03;;
50319;SDS011;36226;53.464;9.852;2022-12-18T04:31:20;11.13;;;4.13;;
50319;SDS011;36226;53.464;9.852;2022-12-18T04:33:46;10.05;;;3.92;;
50319;SDS011;36226;53.464;9.852;2022-12-18T04:36:11;10.77;;;4.57;;
50319;SDS011;36226;53.464;9.852;2022-12-18T04:38:37;10.50;;;4.53;;
50319;SDS011;36226;53.464;9.852;2022-12-18T04:41:02;10.37;;;4.67;;
50319;SDS011;36226;53.464;9.852;2022-12-18T04:43:28;11.68;;;4.57;;
50319;SDS011;36226;53.464;9.852;2022-12-18T04:45:53;8.55;;;3.95;;
50319;SDS011;36226;53.464;9.852;2022-12-18T04:48:19;10.02;;;4.40;;
50319;SDS011;36226;53.464;9.852;2022-12-18T04:50:46;9.55;;;4.57;;
50319;SDS011;36226;53.464;9.852;2022-12-18T04:53:11;9.32;;;3.83;;
50319;SDS011;36226;53.464;9.852;2022-12-18T04:55:37;10.73;;;4.00;;
50319;SDS011;36226;53.464;9.852;2022-12-18T04:58:02;11.35;;;4.75;;
50319;SDS011;36226;53.464;9.852;2022-12-18T05:00:27;8.25;;;4.28;;
50319;SDS011;36226;53.464;9.852;2022-12-18T05:02:53;8.73;;;3.72;;
50319;SDS011;36226;53.464;9.852;2022-12-18T05:05:18;8.20;;;3.65;;
50319;SDS011;36226;53.464;9.852;2022-12-18T05:07:43;11.20;;;3.53;;
50319;SDS011;36226;53.464;9.852;2022-12-18T05:10:09;7.32;;;4.30;;
50319;SDS011;36226;53.464;9.852;2022-12-18T05:12:34;9.57;;;4.05;;
50319;SDS011;36226;53.464;9.852;2022-12-18T05:15:20;8.23;;;3.97;;
50319;SDS011;36226;53.464;9.852;2022-12-18T05:17:45;9.55;;;4.25;;
50319;SDS011;36226;53.464;9.852;2022-12-18T05:20:10;10.05;;;4.60;;
50319;SDS011;36226;53.464;9.852;2022-12-18T05:22:36;10.73;;;3.95;;
50319;SDS011;36226;53.464;9.852;2022-12-18T05:25:01;7.35;;;3.50;;
50319;SDS011;36226;53.464;9.852;2022-12-18T05:27:26;8.02;;;4.15;;
50319;SDS011;36226;53.464;9.852;2022-12-18T05:29:52;11.23;;;4.70;;
50319;SDS011;36226;53.464;9.852;2022-12-18T05:32:17;8.27;;;3.80;;
50319;SDS011;36226;53.464;9.852;2022-12-18T05:34:42;8.07;;;3.55;;
50319;SDS011;36226;53.464;9.852;2022-12-18T05:37:08;9.65;;;4.53;;
50319;SDS011;36226;53.464;9.852;2022-12-18T05:39:33;11.38;;;4.55;;
50319;SDS011;36226;53.464;9.852;2022-12-18T05:41:58;13.18;;;4.45;;
50319;SDS011;36226;53.464;9.852;2022-12-18T05:44:24;9.68;;;4.35;;
50319;SDS011;36226;53.464;9.852;2022-12-18T05:46:49;11.75;;;3.90;;
50319;SDS011;36226;53.464;9.852;2022-12-18T05:49:14;8.48;;;4.00;;
50319;SDS011;36226;53.464;9.852;2022-12-18T05:51:40;6.20;;;3.65;;
50319;SDS011;36226;53.464;9.852;2022-12-18T05:54:05;8.73;;;3.80;;
50319;SDS011;36226;53.464;9.852;2022-12-18T05:56:30;7.35;;;3.80;;
50319;SDS011;36226;53.464;9.852;2022-12-18T05:58:56;7.50;;;3.97;;
50319;SDS011;36226;53.464;9.852;2022-12-18T06:01:23;8.48;;;4.18;;
50319;SDS011;36226;53.464;9.852;2022-12-18T06:03:49;6.88;;;3.50;;
50319;SDS011;36226;53.464;9.852;2022-12-18T06:06:19;7.47;;;4.07;;
50319;SDS011;36226;53.464;9.852;2022-12-18T06:08:45;7.85;;;3.97;;
50319;SDS011;36226;53.464;9.852;2022-12-18T06:11:11;7.68;;;3.75;;
50319;SDS011;36226;53.464;9.852;2022-12-18T06:13:36;7.97;;;3.63;;
50319;SDS011;36226;53.464;9.852;2022-12-18T06:16:03;9.27;;;3.95;;
50319;SDS011;36226;53.464;9.852;2022-12-18T06:18:29;10.38;;;3.80;;
50319;SDS011;36226;53.464;9.852;2022-12-18T06:20:55;9.77;;;3.70;;
50319;SDS011;36226;53.464;9.852;2022-12-18T06:23:21;8.07;;;3.95;;
50319;SDS011;36226;53.464;9.852;2022-12-18T06:25:47;8.25;;;3.85;;
50319;SDS011;36226;53.464;9.852;2022-12-18T06:28:12;10.10;;;3.42;;
50319;SDS011;36226;53.464;9.852;2022-12-18T06:30:38;9.38;;;3.70;;
50319;SDS011;36226;53.464;9.852;2022-12-18T06:33:03;7.83;;;3.73;;
50319;SDS011;36226;53.464;9.852;2022-12-18T06:35:28;7.10;;;3.15;;
50319;SDS011;36226;53.464;9.852;2022-12-18T06:37:54;6.65;;;3.30;;
50319;SDS011;36226;53.464;9.852;2022-12-18T06:40:19;8.90;;;4.17;;
50319;SDS011;36226;53.464;9.852;2022-12-18T06:42:44;10.27;;;3.83;;
50319;SDS011;36226;53.464;9.852;2022-12-18T06:45:10;12.07;;;3.97;;
50319;SDS011;36226;53.464;9.852;2022-12-18T06:47:36;9.13;;;3.90;;
50319;SDS011;36226;53.464;9.852;2022-12-18T06:50:01;10.18;;;4.22;;
50319;SDS011;36226;53.464;9.852;2022-12-18T06:52:27;9.32;;;4.13;;
50319;SDS011;36226;53.464;9.852;2022-12-18T06:54:53;9.82;;;3.72;;
50319;SDS011;36226;53.464;9.852;2022-12-18T06:57:18;8.68;;;4.13;;
50319;SDS011;36226;53.464;9.852;2022-12-18T06:59:43;10.52;;;4.07;;
50319;SDS011;36226;53.464;9.852;2022-12-18T07:02:12;11.93;;;4.38;;
50319;SDS011;36226;53.464;9.852;2022-12-18T07:04:37;8.52;;;4.10;;
50319;SDS011;36226;53.464;9.852;2022-12-18T07:07:03;9.60;;;4.70;;
50319;SDS011;36226;53.464;9.852;2022-12-18T07:09:29;8.07;;;4.03;;
50319;SDS011;36226;53.464;9.852;2022-12-18T07:11:54;11.45;;;4.25;;
50319;SDS011;36226;53.464;9.852;2022-12-18T07:14:19;10.15;;;4.53;;
50319;SDS011;36226;53.464;9.852;2022-12-18T07:16:45;9.20;;;4.47;;
50319;SDS011;36226;53.464;9.852;2022-12-18T07:19:10;12.45;;;6.63;;
50319;SDS011;36226;53.464;9.852;2022-12-18T07:21:35;19.35;;;8.73;;
50319;SDS011;36226;53.464;9.852;2022-12-18T07:24:01;22.95;;;8.73;;
50319;SDS011;36226;53.464;9.852;2022-12-18T07:26:26;22.33;;;8.43;;
50319;SDS011;36226;53.464;9.852;2022-12-18T07:28:54;27.45;;;10.60;;
50319;SDS011;36226;53.464;9.852;2022-12-18T07:31:21;18.33;;;8.88;;
50319;SDS011;36226;53.464;9.852;2022-12-18T07:33:47;17.90;;;7.78;;
50319;SDS011;36226;53.464;9.852;2022-12-18T07:36:12;16.70;;;7.88;;
50319;SDS011;36226;53.464;9.852;2022-12-18T07:38:38;15.40;;;7.28;;
50319;SDS011;36226;53.464;9.852;2022-12-18T07:41:05;14.15;;;6.72;;
50319;SDS011;36226;53.464;9.852;2022-12-18T07:43:40;11.95;;;6.20;;
50319;SDS011;36226;53.464;9.852;2022-12-18T07:46:10;14.43;;;5.88;;
50319;SDS011;36226;53.464;9.852;2022-12-18T07:48:36;12.93;;;6.13;;
50319;SDS011;36226;53.464;9.852;2022-12-18T07:51:02;10.45;;;5.68;;
50319;SDS011;36226;53.464;9.852;2022-12-18T07:53:29;9.45;;;4.95;;
50319;SDS011;36226;53.464;9.852;2022-12-18T07:55:58;9.30;;;4.43;;
50319;SDS011;36226;53.464;9.852;2022-12-18T07:58:25;11.57;;;4.90;;
50319;SDS011;36226;53.464;9.852;2022-12-18T08:00:50;10.75;;;5.03;;
50319;SDS011;36226;53.464;9.852;2022-12-18T08:03:17;14.18;;;5.53;;
50319;SDS011;36226;53.464;9.852;2022-12-18T08:05:43;11.73;;;5.28;;
50319;SDS011;36226;53.464;9.852;2022-12-18T08:08:08;10.10;;;5.10;;
50319;SDS011;36226;53.464;9.852;2022-12-18T08:10:34;10.45;;;5.10;;
50319;SDS011;36226;53.464;9.852;2022-12-18T08:12:59;10.85;;;4.75;;
50319;SDS011;36226;53.464;9.852;2022-12-18T08:15:24;12.70;;;5.22;;
50319;SDS011;36226;53.464;9.852;2022-12-18T08:17:50;11.68;;;4.78;;
50319;SDS011;36226;53.464;9.852;2022-12-18T08:20:15;12.00;;;4.88;;
50319;SDS011;36226;53.464;9.852;2022-12-18T08:22:41;12.68;;;5.28;;
50319;SDS011;36226;53.464;9.852;2022-12-18T08:25:07;9.43;;;4.78;;
50319;SDS011;36226;53.464;9.852;2022-12-18T08:27:33;12.32;;;5.22;;
50319;SDS011;36226;53.464;9.852;2022-12-18T08:29:58;13.13;;;5.07;;
50319;SDS011;36226;53.464;9.852;2022-12-18T08:32:24;12.13;;;5.43;;
50319;SDS011;36226;53.464;9.852;2022-12-18T08:34:50;12.40;;;5.80;;
50319;SDS011;36226;53.464;9.852;2022-12-18T08:37:15;11.80;;;6.10;;
50319;SDS011;36226;53.464;9.852;2022-12-18T08:39:41;10.73;;;5.60;;
50319;SDS011;36226;53.464;9.852;2022-12-18T08:42:06;9.07;;;4.75;;
50319;SDS011;36226;53.464;9.852;2022-12-18T08:44:50;8.73;;;4.38;;
50319;SDS011;36226;53.464;9.852;2022-12-18T08:47:15;8.77;;;4.65;;
50319;SDS011;36226;53.464;9.852;2022-12-18T08:49:41;12.75;;;5.80;;
50319;SDS011;36226;53.464;9.852;2022-12-18T08:52:06;9.68;;;5.03;;
50319;SDS011;36226;53.464;9.852;2022-12-18T08:54:31;10.75;;;5.30;;
50319;SDS011;36226;53.464;9.852;2022-12-18T08:56:57;14.63;;;5.28;;
50319;SDS011;36226;53.464;9.852;2022-12-18T08:59:22;15.30;;;6.15;;
50319;SDS011;36226;53.464;9.852;2022-12-18T09:01:48;14.55;;;5.93;;
50319;SDS011;36226;53.464;9.852;2022-12-18T09:04:13;15.35;;;6.50;;
50319;SDS011;36226;53.464;9.852;2022-12-18T09:06:39;16.55;;;5.45;;
50319;SDS011;36226;53.464;9.852;2022-12-18T09:09:05;15.38;;;6.03;;
50319;SDS011;36226;53.464;9.852;2022-12-18T09:11:31;15.02;;;7.32;;
50319;SDS011;36226;53.464;9.852;2022-12-18T09:13:57;15.90;;;8.35;;
50319;SDS011;36226;53.464;9.852;2022-12-18T09:16:23;16.95;;;8.55;;
50319;SDS011;36226;53.464;9.852;2022-12-18T09:18:49;9.10;;;5.07;;
50319;SDS011;36226;53.464;9.852;2022-12-18T09:21:24;10.03;;;4.97;;
50319;SDS011;36226;53.464;9.852;2022-12-18T09:23:50;13.60;;;5.88;;
50319;SDS011;36226;53.464;9.852;2022-12-18T09:26:16;12.25;;;5.45;;
50319;SDS011;36226;53.464;9.852;2022-12-18T09:28:41;14.23;;;5.55;;
50319;SDS011;36226;53.464;9.852;2022-12-18T09:31:07;10.40;;;4.93;;
50319;SDS011;36226;53.464;9.852;2022-12-18T09:33:34;9.88;;;4.88;;
50319;SDS011;36226;53.464;9.852;2022-12-18T09:36:01;10.65;;;4.70;;
50319;SDS011;36226;53.464;9.852;2022-12-18T09:38:27;13.05;;;5.38;;
50319;SDS011;36226;53.464;9.852;2022-12-18T09:40:53;9.43;;;4.85;;
50319;SDS011;36226;53.464;9.852;2022-12-18T09:43:26;10.68;;;5.20;;
50319;SDS011;36226;53.464;9.852;2022-12-18T09:46:00;9.90;;;5.07;;
50319;SDS011;36226;53.464;9.852;2022-12-18T09:48:30;8.63;;;4.60;;
50319;SDS011;36226;53.464;9.852;2022-12-18T09:50:59;6.82;;;3.95;;
50319;SDS011;36226;53.464;9.852;2022-12-18T09:53:28;10.20;;;4.22;;
50319;SDS011;36226;53.464;9.852;2022-12-18T09:55:56;8.77;;;4.15;;
50319;SDS011;36226;53.464;9.852;2022-12-18T09:58:30;12.85;;;5.32;;
50319;SDS011;36226;53.464;9.852;2022-12-18T10:00:59;9.98;;;5.05;;
50319;SDS011;36226;53.464;9.852;2022-12-18T10:03:24;10.32;;;4.90;;
50319;SDS011;36226;53.464;9.852;2022-12-18T10:06:04;12.00;;;4.50;;
50319;SDS011;36226;53.464;9.852;2022-12-18T10:11:22;9.63;;;4.90;;
50319;SDS011;36226;53.464;9.852;2022-12-18T10:13:54;13.57;;;5.25;;
50319;SDS011;36226;53.464;9.852;2022-12-18T10:19:01;10.27;;;4.93;;
50319;SDS011;36226;53.464;9.852;2022-12-18T10:27:14;10.98;;;4.63;;
50319;SDS011;36226;53.464;9.852;2022-12-18T10:29:42;9.80;;;4.53;;
50319;SDS011;36226;53.464;9.852;2022-12-18T10:32:16;8.45;;;4.00;;
50319;SDS011;36226;53.464;9.852;2022-12-18T10:34:47;9.10;;;4.33;;
50319;SDS011;36226;53.464;9.852;2022-12-18T10:37:18;10.13;;;4.10;;
50319;SDS011;36226;53.464;9.852;2022-12-18T10:39:46;9.15;;;4.53;;
50319;SDS011;36226;53.464;9.852;2022-12-18T10:42:19;9.10;;;4.32;;
50319;SDS011;36226;53.464;9.852;2022-12-18T10:44:44;9.05;;;4.40;;
50319;SDS011;36226;53.464;9.852;2022-12-18T10:47:14;7.95;;;3.80;;
50319;SDS011;36226;53.464;9.852;2022-12-18T10:49:48;7.75;;;3.97;;
50319;SDS011;36226;53.464;9.852;2022-12-18T10:52:21;9.07;;;3.95;;
50319;SDS011;36226;53.464;9.852;2022-12-18T10:54:52;8.85;;;3.70;;
50319;SDS011;36226;53.464;9.852;2022-12-18T11:00:19;9.60;;;4.25;;
50319;SDS011;36226;53.464;9.852;2022-12-18T11:02:48;7.70;;;3.83;;
50319;SDS011;36226;53.464;9.852;2022-12-18T11:05:24;7.05;;;3.42;;
50319;SDS011;36226;53.464;9.852;2022-12-18T11:07:54;7.45;;;3.85;;
50319;SDS011;36226;53.464;9.852;2022-12-18T11:10:22;12.45;;;4.25;;
50319;SDS011;36226;53.464;9.852;2022-12-18T11:12:55;7.78;;;4.10;;
50319;SDS011;36226;53.464;9.852;2022-12-18T11:15:21;7.07;;;3.95;;
50319;SDS011;36226;53.464;9.852;2022-12-18T11:17:51;9.50;;;3.95;;
50319;SDS011;36226;53.464;9.852;2022-12-18T11:20:31;8.70;;;3.92;;
50319;SDS011;36226;53.464;9.852;2022-12-18T11:22:58;8.52;;;4.50;;
50319;SDS011;36226;53.464;9.852;2022-12-18T11:25:25;8.13;;;3.78;;
50319;SDS011;36226;53.464;9.852;2022-12-18T11:27:58;10.05;;;4.28;;
50319;SDS011;36226;53.464;9.852;2022-12-18T11:30:29;8.30;;;3.90;;
50319;SDS011;36226;53.464;9.852;2022-12-18T11:33:05;12.90;;;4.40;;
50319;SDS011;36226;53.464;9.852;2022-12-18T11:35:37;6.97;;;3.53;;
50319;SDS011;36226;53.464;9.852;2022-12-18T11:38:16;9.57;;;4.10;;
50319;SDS011;36226;53.464;9.852;2022-12-18T11:40:44;8.85;;;4.57;;
50319;SDS011;36226;53.464;9.852;2022-12-18T11:43:14;8.90;;;4.30;;
50319;SDS011;36226;53.464;9.852;2022-12-18T11:46:04;10.10;;;5.50;;
50319;SDS011;36226;53.464;9.852;2022-12-18T11:48:34;11.50;;;4.03;;
50319;SDS011;36226;53.464;9.852;2022-12-18T11:51:03;7.15;;;4.32;;
50319;SDS011;36226;53.464;9.852;2022-12-18T11:53:30;8.27;;;4.32;;
50319;SDS011;36226;53.464;9.852;2022-12-18T11:56:16;11.65;;;4.97;;
50319;SDS011;36226;53.464;9.852;2022-12-18T12:10:08;8.15;;;4.32;;
50319;SDS011;36226;53.464;9.852;2022-12-18T12:12:35;9.55;;;4.70;;
50319;SDS011;36226;53.464;9.852;2022-12-18T12:24:16;11.23;;;4.35;;
50319;SDS011;36226;53.464;9.852;2022-12-18T12:34:55;9.13;;;4.00;;
50319;SDS011;36226;53.464;9.852;2022-12-18T12:40:18;9.32;;;3.53;;
50319;SDS011;36226;53.464;9.852;2022-12-18T12:45:57;8.25;;;3.10;;
50319;SDS011;36226;53.464;9.852;2022-12-18T12:48:33;8.93;;;3.60;;
50319;SDS011;36226;53.464;9.852;2022-12-18T12:51:04;8.48;;;3.53;;
50319;SDS011;36226;53.464;9.852;2022-12-18T12:53:36;5.80;;;2.58;;
50319;SDS011;36226;53.464;9.852;2022-12-18T12:56:06;4.10;;;2.65;;
50319;SDS011;36226;53.464;9.852;2022-12-18T12:58:36;6.15;;;3.22;;
50319;SDS011;36226;53.464;9.852;2022-12-18T13:07:01;9.13;;;3.45;;
50319;SDS011;36226;53.464;9.852;2022-12-18T13:09:31;11.95;;;3.60;;
50319;SDS011;36226;53.464;9.852;2022-12-18T13:12:01;8.98;;;3.15;;
50319;SDS011;36226;53.464;9.852;2022-12-18T13:14:46;10.90;;;3.50;;
50319;SDS011;36226;53.464;9.852;2022-12-18T13:17:16;7.35;;;3.67;;
50319;SDS011;36226;53.464;9.852;2022-12-18T13:19:50;7.60;;;3.00;;
50319;SDS011;36226;53.464;9.852;2022-12-18T13:22:21;8.25;;;3.33;;
50319;SDS011;36226;53.464;9.852;2022-12-18T13:25:26;8.75;;;3.80;;
50319;SDS011;36226;53.464;9.852;2022-12-18T13:35:38;10.15;;;4.68;;
50319;SDS011;36226;53.464;9.852;2022-12-18T13:40:56;10.20;;;4.57;;
50319;SDS011;36226;53.464;9.852;2022-12-18T13:48:56;11.85;;;6.05;;
50319;SDS011;36226;53.464;9.852;2022-12-18T13:51:44;9.57;;;5.05;;
50319;SDS011;36226;53.464;9.852;2022-12-18T13:56:45;10.13;;;5.22;;
50319;SDS011;36226;53.464;9.852;2022-12-18T14:01:47;16.33;;;6.70;;
50319;SDS011;36226;53.464;9.852;2022-12-18T14:06:49;17.48;;;6.85;;
50319;SDS011;36226;53.464;9.852;2022-12-18T14:09:23;14.50;;;6.70;;
50319;SDS011;36226;53.464;9.852;2022-12-18T14:11:50;15.60;;;7.50;;
50319;SDS011;36226;53.464;9.852;2022-12-18T14:14:16;15.38;;;7.30;;
50319;SDS011;36226;53.464;9.852;2022-12-18T14:16:43;16.58;;;8.65;;
50319;SDS011;36226;53.464;9.852;2022-12-18T14:19:11;21.05;;;7.30;;
50319;SDS011;36226;53.464;9.852;2022-12-18T14:21:50;18.70;;;7.28;;
50319;SDS011;36226;53.464;9.852;2022-12-18T14:24:19;14.77;;;6.43;;
50319;SDS011;36226;53.464;9.852;2022-12-18T14:26:49;19.75;;;7.53;;
50319;SDS011;36226;53.464;9.852;2022-12-18T14:31:44;21.67;;;8.57;;
50319;SDS011;36226;53.464;9.852;2022-12-18T14:34:16;16.15;;;7.18;;
50319;SDS011;36226;53.464;9.852;2022-12-18T14:36:44;19.52;;;8.80;;
50319;SDS011;36226;53.464;9.852;2022-12-18T14:39:17;17.50;;;8.73;;
50319;SDS011;36226;53.464;9.852;2022-12-18T14:41:42;19.90;;;9.27;;
50319;SDS011;36226;53.464;9.852;2022-12-18T14:44:10;16.20;;;7.55;;
50319;SDS011;36226;53.464;9.852;2022-12-18T14:46:38;24.52;;;10.35;;
50319;SDS011;36226;53.464;9.852;2022-12-18T14:52:03;24.70;;;9.93;;
50319;SDS011;36226;53.464;9.852;2022-12-18T14:59:28;25.48;;;9.68;;
50319;SDS011;36226;53.464;9.852;2022-12-18T15:04:34;21.17;;;8.73;;
50319;SDS011;36226;53.464;9.852;2022-12-18T15:09:33;26.67;;;10.43;;
50319;SDS011;36226;53.464;9.852;2022-12-18T15:11:59;28.00;;;10.30;;
50319;SDS011;36226;53.464;9.852;2022-12-18T15:14:31;22.50;;;9.02;;
50319;SDS011;36226;53.464;9.852;2022-12-18T15:16:57;28.67;;;9.77;;
50319;SDS011;36226;53.464;9.852;2022-12-18T15:19:26;24.40;;;11.15;;
50319;SDS011;36226;53.464;9.852;2022-12-18T15:22:18;35.58;;;13.68;;
50319;SDS011;36226;53.464;9.852;2022-12-18T15:24:48;31.60;;;11.80;;
50319;SDS011;36226;53.464;9.852;2022-12-18T15:30:31;29.65;;;11.70;;
50319;SDS011;36226;53.464;9.852;2022-12-18T15:32:35;27.58;;;11.40;;
50319;SDS011;36226;53.464;9.852;2022-12-18T15:35:02;28.85;;;11.13;;
50319;SDS011;36226;53.464;9.852;2022-12-18T15:37:28;31.55;;;13.93;;
50319;SDS011;36226;53.464;9.852;2022-12-18T15:39:53;33.40;;;12.65;;
50319;SDS011;36226;53.464;9.852;2022-12-18T15:42:18;31.95;;;12.63;;
50319;SDS011;36226;53.464;9.852;2022-12-18T15:45:02;40.40;;;14.85;;
50319;SDS011;36226;53.464;9.852;2022-12-18T15:47:27;31.10;;;12.48;;
50319;SDS011;36226;53.464;9.852;2022-12-18T15:49:53;34.17;;;12.27;;
50319;SDS011;36226;53.464;9.852;2022-12-18T15:52:18;35.42;;;12.90;;
50319;SDS011;36226;53.464;9.852;2022-12-18T15:54:50;33.42;;;12.90;;
50319;SDS011;36226;53.464;9.852;2022-12-18T15:57:34;34.13;;;13.13;;
50319;SDS011;36226;53.464;9.852;2022-12-18T15:59:59;30.15;;;13.05;;
50319;SDS011;36226;53.464;9.852;2022-12-18T16:02:25;33.78;;;14.63;;
50319;SDS011;36226;53.464;9.852;2022-12-18T16:04:51;29.67;;;10.30;;
50319;SDS011;36226;53.464;9.852;2022-12-18T16:07:17;36.40;;;12.23;;
50319;SDS011;36226;53.464;9.852;2022-12-18T16:09:43;27.75;;;12.40;;
50319;SDS011;36226;53.464;9.852;2022-12-18T16:12:19;37.47;;;15.73;;
50319;SDS011;36226;53.464;9.852;2022-12-18T16:14:46;35.13;;;14.00;;
50319;SDS011;36226;53.464;9.852;2022-12-18T16:17:12;32.35;;;13.18;;
50319;SDS011;36226;53.464;9.852;2022-12-18T16:19:38;37.53;;;14.20;;
50319;SDS011;36226;53.464;9.852;2022-12-18T16:22:03;32.58;;;13.40;;
50319;SDS011;36226;53.464;9.852;2022-12-18T16:24:30;39.00;;;14.27;;
50319;SDS011;36226;53.464;9.852;2022-12-18T16:26:57;34.35;;;14.27;;
50319;SDS011;36226;53.464;9.852;2022-12-18T16:29:24;37.35;;;15.35;;
50319;SDS011;36226;53.464;9.852;2022-12-18T16:31:52;35.95;;;14.68;;
50319;SDS011;36226;53.464;9.852;2022-12-18T16:34:22;36.60;;;15.07;;
50319;SDS011;36226;53.464;9.852;2022-12-18T16:36:50;35.05;;;13.50;;
50319;SDS011;36226;53.464;9.852;2022-12-18T16:39:16;31.95;;;12.02;;
50319;SDS011;36226;53.464;9.852;2022-12-18T16:41:42;36.63;;;13.52;;
50319;SDS011;36226;53.464;9.852;2022-12-18T16:44:08;24.45;;;9.07;;
50319;SDS011;36226;53.464;9.852;2022-12-18T16:46:33;35.33;;;14.63;;